createdAt,value
2019-05-21T00:00:40.648Z,17.1
2019-05-21T00:01:40.840Z,17.700001
2019-05-21T00:02:40.771Z,18
2019-05-21T00:03:40.844Z,17
2019-05-21T00:04:41.096Z,17.700001
2019-05-21T00:05:40.993Z,17.4
2019-05-21T00:06:41.060Z,16.799999
2019-05-21T00:07:41.334Z,17.299999
2019-05-21T00:08:41.322Z,17.9
2019-05-21T00:09:41.224Z,18.200001
2019-05-21T00:10:41.287Z,18
2019-05-21T00:11:41.364Z,17.1
2019-05-21T00:12:41.468Z,17.6
2019-05-21T00:13:41.555Z,18.799999
2019-05-21T00:14:41.646Z,17.9
2019-05-21T00:15:41.882Z,18.299999
2019-05-21T00:16:41.907Z,18.200001
2019-05-21T00:17:41.856Z,17.799999
2019-05-21T00:18:41.991Z,17.5
2019-05-21T00:19:42.118Z,17.6
2019-05-21T00:20:42.344Z,18.799999
2019-05-21T00:21:42.276Z,18.200001
2019-05-21T00:22:42.428Z,18
2019-05-21T00:23:42.609Z,17.9
2019-05-21T00:24:42.750Z,18
2019-05-21T00:25:42.645Z,17.799999
2019-05-21T00:26:42.733Z,18.5
2019-05-21T00:27:42.948Z,18.1
2019-05-21T00:28:43.035Z,16.9
2019-05-21T00:29:42.963Z,17.6
2019-05-21T00:30:43.060Z,17
2019-05-21T00:31:43.271Z,16.799999
2019-05-21T00:32:43.198Z,17.4
2019-05-21T00:33:43.327Z,18.1
2019-05-21T00:34:44.346Z,18.6
2019-05-21T00:35:43.598Z,19.1
2019-05-21T00:36:43.564Z,18.799999
2019-05-21T00:37:43.660Z,19
2019-05-21T00:38:43.791Z,19.1
2019-05-21T00:39:43.921Z,18.799999
2019-05-21T00:40:44.333Z,21.200001
2019-05-21T00:41:44.087Z,19.9
2019-05-21T00:42:44.164Z,20.299999
2019-05-21T00:43:44.433Z,20.9
2019-05-21T00:44:44.416Z,21
2019-05-21T00:45:44.486Z,21.5
2019-05-21T00:46:44.581Z,20.299999
2019-05-21T00:47:44.765Z,21.700001
2019-05-21T00:48:44.846Z,22.200001
2019-05-21T00:49:44.771Z,22.9
2019-05-21T00:50:44.871Z,23.200001
2019-05-21T00:51:44.999Z,28.1
2019-05-21T00:52:45.081Z,27.9
2019-05-21T00:53:45.221Z,30.9
2019-05-21T00:54:45.267Z,32
2019-05-21T00:55:45.350Z,32.599998
2019-05-21T00:56:46.429Z,32.299999
2019-05-21T00:57:45.500Z,33.5
2019-05-21T00:58:45.626Z,35.200001
2019-05-21T00:59:45.810Z,35.700001
2019-05-21T01:00:45.753Z,35.599998
2019-05-21T01:01:45.834Z,36.900002
2019-05-21T01:02:45.895Z,36.900002
2019-05-21T01:03:46.065Z,36
2019-05-21T01:04:59.428Z,35.200001
2019-05-21T01:05:47.317Z,36.799999
2019-05-21T01:06:46.296Z,35.299999
2019-05-21T01:07:46.359Z,36.099998
2019-05-21T01:08:46.460Z,34.700001
2019-05-21T01:09:46.523Z,34.099998
2019-05-21T01:10:46.584Z,33
2019-05-21T01:11:46.656Z,34.599998
2019-05-21T01:12:46.721Z,32.599998
2019-05-21T01:13:46.808Z,31.9
2019-05-21T01:14:46.996Z,31.6
2019-05-21T01:15:46.899Z,31
2019-05-21T01:16:47.001Z,29.799999
2019-05-21T01:17:49.131Z,29.200001
2019-05-21T01:18:47.168Z,28.4
2019-05-21T01:19:47.182Z,27.799999
2019-05-21T01:20:47.261Z,27.700001
2019-05-21T01:21:47.352Z,27.799999
2019-05-21T01:22:47.480Z,26.1
2019-05-21T01:23:47.687Z,26.4
2019-05-21T01:24:47.627Z,25.6
2019-05-21T01:25:47.699Z,25.700001
2019-05-21T01:26:47.757Z,24.6
2019-05-21T01:27:47.812Z,25.6
2019-05-21T01:28:47.902Z,24.799999
2019-05-21T01:29:48.019Z,24.9
2019-05-21T01:30:48.100Z,25.299999
2019-05-21T01:31:48.176Z,24
2019-05-21T01:32:48.264Z,24.299999
2019-05-21T01:33:48.461Z,24.9
2019-05-21T01:34:48.535Z,23.9
2019-05-21T01:35:48.459Z,24
2019-05-21T01:36:48.514Z,23.4
2019-05-21T01:37:48.588Z,24.200001
2019-05-21T01:38:48.656Z,23.6
2019-05-21T01:39:48.724Z,22.200001
2019-05-21T01:40:48.826Z,22.9
2019-05-21T01:41:48.900Z,23.5
2019-05-21T01:42:48.979Z,23
2019-05-21T01:43:49.032Z,23
2019-05-21T01:44:49.136Z,22.1
2019-05-21T01:45:49.298Z,23.1
2019-05-21T01:46:49.252Z,23
2019-05-21T01:47:49.297Z,21.9
2019-05-21T01:48:49.403Z,23.200001
2019-05-21T01:49:49.497Z,22.200001
2019-05-21T01:50:49.603Z,22.1
2019-05-21T01:51:49.660Z,23.799999
2019-05-21T01:52:49.737Z,22.1
2019-05-21T01:53:49.807Z,23.4
2019-05-21T01:54:49.877Z,22.4
2019-05-21T01:55:50.032Z,23.700001
2019-05-21T01:56:50.063Z,23.6
2019-05-21T01:57:50.280Z,22.700001
2019-05-21T01:58:50.208Z,23.200001
2019-05-21T01:59:50.294Z,22.6
2019-05-21T02:00:50.497Z,23.1
2019-05-21T02:01:50.566Z,23.9
2019-05-21T02:02:50.552Z,23.700001
2019-05-21T02:03:50.643Z,24.799999
2019-05-21T02:04:50.707Z,24.700001
2019-05-21T02:05:50.804Z,25.299999
2019-05-21T02:06:50.956Z,24.6
2019-05-21T02:07:51.031Z,25.6
2019-05-21T02:08:51.072Z,25.299999
2019-05-21T02:09:51.188Z,25.6
2019-05-21T02:10:51.250Z,25.5
2019-05-21T02:11:51.372Z,25.9
2019-05-21T02:12:51.426Z,26.6
2019-05-21T02:13:51.501Z,26.5
2019-05-21T02:14:51.562Z,26.5
2019-05-21T02:15:51.670Z,26.5
2019-05-21T02:16:51.762Z,26.200001
2019-05-21T02:17:51.911Z,25.799999
2019-05-21T02:18:51.992Z,26.6
2019-05-21T02:19:52.078Z,26.6
2019-05-21T02:20:52.139Z,26.799999
2019-05-21T02:21:52.298Z,27.5
2019-05-21T02:22:52.201Z,27.6
2019-05-21T02:23:52.268Z,27.9
2019-05-21T02:24:52.332Z,29.6
2019-05-21T02:25:52.399Z,28.9
2019-05-21T02:26:52.412Z,28.6
2019-05-21T02:27:52.494Z,29.799999
2019-05-21T02:28:52.612Z,29.299999
2019-05-21T02:29:52.625Z,29.1
2019-05-21T02:30:56.340Z,30.4
2019-05-21T02:31:53.746Z,31.6
2019-05-21T02:32:52.870Z,31.6
2019-05-21T02:33:52.946Z,32.200001
2019-05-21T02:34:53.017Z,31.700001
2019-05-21T02:35:54.785Z,32.200001
2019-05-21T02:36:53.230Z,34.400002
2019-05-21T02:37:53.439Z,35.700001
2019-05-21T02:38:53.369Z,37.200001
2019-05-21T02:39:53.452Z,36.599998
2019-05-21T02:40:53.528Z,38
2019-05-21T02:41:53.611Z,36.799999
2019-05-21T02:42:53.670Z,37
2019-05-21T02:43:53.723Z,38.900002
2019-05-21T02:44:54.621Z,38.099998
2019-05-21T02:45:53.812Z,37.900002
2019-05-21T02:46:53.905Z,37.299999
2019-05-21T02:47:53.980Z,37.799999
2019-05-21T02:48:54.132Z,38.400002
2019-05-21T02:49:54.191Z,39.299999
2019-05-21T02:50:54.267Z,39.200001
2019-05-21T02:51:54.435Z,40
2019-05-21T02:52:54.387Z,40
2019-05-21T02:53:55.396Z,40.700001
2019-05-21T02:54:54.505Z,39.599998
2019-05-21T02:55:54.652Z,39.200001
2019-05-21T02:56:54.839Z,39.799999
2019-05-21T02:57:54.765Z,40.400002
2019-05-21T02:58:54.866Z,41.900002
2019-05-21T02:59:54.955Z,41.5
2019-05-21T03:00:55.020Z,41
2019-05-21T03:01:55.099Z,42
2019-05-21T03:02:55.179Z,40.799999
2019-05-21T03:03:55.282Z,40.299999
2019-05-21T03:04:55.508Z,41.900002
2019-05-21T03:06:12.121Z,40.599998
2019-05-21T03:06:56.463Z,41.5
2019-05-21T03:07:55.583Z,41.599998
2019-05-21T03:08:55.640Z,40.5
2019-05-21T03:09:55.738Z,41.099998
2019-05-21T03:10:55.798Z,42.700001
2019-05-21T03:11:55.928Z,40.700001
2019-05-21T03:12:56.106Z,42.299999
2019-05-21T03:13:56.015Z,40.599998
2019-05-21T03:14:56.195Z,41.599998
2019-05-21T03:15:56.113Z,41.400002
2019-05-21T03:16:56.182Z,42.799999
2019-05-21T03:17:56.300Z,41.299999
2019-05-21T03:18:56.361Z,42.5
2019-05-21T03:19:56.506Z,42.200001
2019-05-21T03:20:57.585Z,42.200001
2019-05-21T03:21:56.652Z,42.299999
2019-05-21T03:22:56.789Z,42
2019-05-21T03:23:56.988Z,41.400002
2019-05-21T03:25:01.716Z,40.799999
2019-05-21T03:25:57.987Z,40.900002
2019-05-21T03:31:57.571Z,41.099998
2019-05-21T03:32:57.520Z,40
2019-05-21T03:33:57.641Z,40.400002
2019-05-21T03:34:57.780Z,39.099998
2019-05-21T03:35:57.857Z,40.299999
2019-05-21T03:36:57.952Z,40.599998
2019-05-21T03:37:58.059Z,39.900002
2019-05-21T03:38:58.227Z,39.400002
2019-05-21T03:39:58.143Z,38.799999
2019-05-21T03:40:58.209Z,38.900002
2019-05-21T03:41:58.302Z,40.700001
2019-05-21T03:42:58.378Z,40.900002
2019-05-21T03:43:58.470Z,40.700001
2019-05-21T03:45:00.601Z,41.400002
2019-05-21T03:45:58.708Z,40.799999
2019-05-21T03:46:58.689Z,42.200001
2019-05-21T03:47:58.740Z,43.099998
2019-05-21T03:48:58.845Z,43.900002
2019-05-21T03:49:58.936Z,44
2019-05-21T03:50:59.022Z,44.299999
2019-05-21T03:51:59.079Z,44.799999
2019-05-21T03:52:59.169Z,44.700001
2019-05-21T03:53:59.289Z,45
2019-05-21T03:55:02.784Z,43.799999
2019-05-21T03:56:00.499Z,45.200001
2019-05-21T03:56:59.575Z,44.200001
2019-05-21T03:57:59.674Z,43.599998
2019-05-21T03:58:59.717Z,44.799999
2019-05-21T03:59:59.815Z,44.700001
2019-05-21T04:00:59.905Z,41.599998
2019-05-21T04:02:00.952Z,44.599998
2019-05-21T04:03:00.004Z,44.700001
2019-05-21T04:04:01.215Z,43.599998
2019-05-21T04:05:00.146Z,43.400002
2019-05-21T04:06:00.210Z,43
2019-05-21T04:07:00.281Z,44
2019-05-21T04:08:00.351Z,43.900002
2019-05-21T04:09:00.322Z,42.700001
2019-05-21T04:10:00.405Z,43.900002
2019-05-21T04:11:00.461Z,44.299999
2019-05-21T04:12:00.589Z,44.200001
2019-05-21T04:13:00.647Z,42.900002
2019-05-21T04:14:00.710Z,43.200001
2019-05-21T04:15:00.791Z,39.400002
2019-05-21T04:16:01.869Z,39.799999
2019-05-21T04:17:01.038Z,39.099998
2019-05-21T04:18:00.963Z,39.799999
2019-05-21T04:19:00.995Z,39.599998
2019-05-21T04:20:01.101Z,39
2019-05-21T04:21:01.151Z,39
2019-05-21T04:22:01.280Z,39.299999
2019-05-21T04:23:01.342Z,39.700001
2019-05-21T04:24:01.410Z,40.5
2019-05-21T04:25:01.720Z,37.599998
2019-05-21T04:26:01.550Z,38.700001
2019-05-21T04:27:01.629Z,38.099998
2019-05-21T04:28:01.777Z,37.700001
2019-05-21T04:29:01.835Z,38.400002
2019-05-21T04:30:02.953Z,39.799999
2019-05-21T04:31:02.081Z,39.099998
2019-05-21T04:32:02.161Z,39.400002
2019-05-21T04:33:02.268Z,39
2019-05-21T04:34:02.344Z,39.400002
2019-05-21T04:35:02.438Z,38.299999
2019-05-21T04:36:02.675Z,37.799999
2019-05-21T04:37:10.256Z,38.099998
2019-05-21T04:38:03.820Z,38.200001
2019-05-21T04:39:02.827Z,39.200001
2019-05-21T04:40:02.961Z,38.400002
2019-05-21T04:41:02.995Z,39
2019-05-21T04:42:03.123Z,38.299999
2019-05-21T04:43:03.089Z,37.200001
2019-05-21T04:44:03.380Z,38.700001
2019-05-21T04:45:03.440Z,39.799999
2019-05-21T04:46:03.371Z,37.200001
2019-05-21T04:47:03.354Z,37.5
2019-05-21T04:48:03.364Z,36.5
2019-05-21T04:49:03.383Z,37.5
2019-05-21T04:50:03.391Z,37.799999
2019-05-21T04:51:03.454Z,38
2019-05-21T04:52:03.493Z,39.200001
2019-05-21T04:53:03.542Z,38.299999
2019-05-21T04:54:03.587Z,37.200001
2019-05-21T04:55:03.557Z,37.900002
2019-05-21T04:56:03.756Z,37.400002
2019-05-21T04:57:03.795Z,38
2019-05-21T04:58:03.807Z,37.400002
2019-05-21T04:59:03.873Z,38.200001
2019-05-21T05:00:03.880Z,37.799999
2019-05-21T05:01:03.924Z,36.400002
2019-05-21T05:02:03.946Z,37
2019-05-21T05:03:04.050Z,37.299999
2019-05-21T05:04:04.066Z,36.5
2019-05-21T05:05:04.078Z,37.099998
2019-05-21T05:06:04.141Z,35.700001
2019-05-21T05:07:04.166Z,36.400002
2019-05-21T05:08:04.179Z,37.400002
2019-05-21T05:09:04.177Z,35.900002
2019-05-21T05:10:04.206Z,36.200001
2019-05-21T05:11:04.223Z,36.599998
2019-05-21T05:12:04.256Z,35.299999
2019-05-21T05:13:04.273Z,37.099998
2019-05-21T05:14:04.275Z,35.900002
2019-05-21T05:15:04.296Z,35.400002
2019-05-21T05:16:04.585Z,36.099998
2019-05-21T05:17:04.342Z,36.599998
2019-05-21T05:18:04.361Z,37.700001
2019-05-21T05:19:04.415Z,36.400002
2019-05-21T05:20:04.430Z,36.900002
2019-05-21T05:21:04.450Z,37.799999
2019-05-21T05:22:04.491Z,36.200001
2019-05-21T05:23:04.503Z,36.900002
2019-05-21T05:24:04.522Z,37
2019-05-21T05:25:04.541Z,36.700001
2019-05-21T05:26:04.547Z,35.900002
2019-05-21T05:27:04.732Z,36.400002
2019-05-21T05:28:04.629Z,34.799999
2019-05-21T05:29:04.660Z,35
2019-05-21T05:30:04.671Z,35.5
2019-05-21T05:31:04.723Z,36.900002
2019-05-21T05:32:04.831Z,36.799999
2019-05-21T05:33:04.849Z,35.299999
2019-05-21T05:34:04.865Z,36.299999
2019-05-21T05:35:04.916Z,37.099998
2019-05-21T05:36:04.924Z,35.599998
2019-05-21T05:37:04.968Z,36.099998
2019-05-21T05:38:05.027Z,36.700001
2019-05-21T05:39:05.034Z,35.900002
2019-05-21T05:40:05.205Z,37.400002
2019-05-21T05:41:05.194Z,37.700001
2019-05-21T05:42:05.201Z,35.599998
2019-05-21T05:43:05.240Z,37.5
2019-05-21T05:44:05.253Z,35.700001
2019-05-21T05:45:05.286Z,35.700001
2019-05-21T05:46:05.289Z,35.700001
2019-05-21T05:47:05.322Z,34.400002
2019-05-21T05:48:05.364Z,34.700001
2019-05-21T05:49:05.396Z,35.5
2019-05-21T05:50:05.419Z,35.799999
2019-05-21T05:51:05.432Z,35
2019-05-21T05:52:05.474Z,35.400002
2019-05-21T05:53:05.523Z,37.200001
2019-05-21T05:54:07.642Z,35
2019-05-21T05:55:05.545Z,36.099998
2019-05-21T05:56:05.567Z,34.900002
2019-05-21T05:57:05.611Z,33.299999
2019-05-21T05:58:05.737Z,32.799999
2019-05-21T05:59:05.798Z,33.599998
2019-05-21T06:00:05.800Z,32.099998
2019-05-21T06:01:05.798Z,32.700001
2019-05-21T06:02:05.811Z,32.099998
2019-05-21T06:03:05.866Z,31.5
2019-05-21T06:04:05.874Z,32
2019-05-21T06:05:05.873Z,31.200001
2019-05-21T06:06:05.869Z,30.200001
2019-05-21T06:07:06.133Z,29.6
2019-05-21T06:08:06.204Z,28.4
2019-05-21T06:09:06.204Z,28.700001
2019-05-21T06:10:06.225Z,28.9
2019-05-21T06:11:06.272Z,28.299999
2019-05-21T06:12:06.270Z,28.200001
2019-05-21T06:13:06.328Z,27.799999
2019-05-21T06:14:06.410Z,27.4
2019-05-21T06:15:06.604Z,27.6
2019-05-21T06:16:06.559Z,27.5
2019-05-21T06:17:06.588Z,27.5
2019-05-21T06:18:06.672Z,26.6
2019-05-21T06:19:06.754Z,26.799999
2019-05-21T06:20:06.758Z,26.1
2019-05-21T06:21:06.808Z,27.200001
2019-05-21T06:22:06.858Z,26.299999
2019-05-21T06:23:06.860Z,26.200001
2019-05-21T06:24:06.907Z,25
2019-05-21T06:25:07.209Z,24.5
2019-05-21T06:26:07.024Z,26.4
2019-05-21T06:27:07.028Z,25.6
2019-05-21T06:28:07.024Z,25
2019-05-21T06:29:07.053Z,24.700001
2019-05-21T06:30:07.053Z,25.700001
2019-05-21T06:31:07.054Z,23.700001
2019-05-21T06:32:07.077Z,23.9
2019-05-21T06:33:07.097Z,24.4
2019-05-21T06:34:07.167Z,22.9
2019-05-21T06:35:07.192Z,24
2019-05-21T06:36:07.201Z,23.4
2019-05-21T06:37:07.258Z,23.1
2019-05-21T06:38:16.949Z,23.5
2019-05-21T06:39:08.381Z,23.5
2019-05-21T06:40:07.389Z,24
2019-05-21T06:41:07.417Z,23
2019-05-21T06:42:07.467Z,24
2019-05-21T06:43:07.444Z,23
2019-05-21T06:44:07.496Z,22.799999
2019-05-21T06:45:07.596Z,23.5
2019-05-21T06:46:07.611Z,23.5
2019-05-21T06:47:07.611Z,23.799999
2019-05-21T06:48:07.642Z,22.799999
2019-05-21T06:49:07.674Z,23.799999
2019-05-21T06:50:07.706Z,23.1
2019-05-21T06:51:07.714Z,21.799999
2019-05-21T06:52:07.724Z,22.6
2019-05-21T06:53:07.782Z,23.1
2019-05-21T06:54:07.841Z,22.1
2019-05-21T06:55:07.884Z,23
2019-05-21T06:56:08.050Z,21.799999
2019-05-21T06:57:07.912Z,21.5
2019-05-21T06:58:08.984Z,21.4
2019-05-21T06:59:07.969Z,21.9
2019-05-21T07:00:08.053Z,21.799999
2019-05-21T07:01:08.082Z,22.200001
2019-05-21T07:02:08.094Z,22.1
2019-05-21T07:03:08.098Z,21.299999
2019-05-21T07:04:08.194Z,21.700001
2019-05-21T07:05:08.258Z,21.200001
2019-05-21T07:06:08.238Z,21.299999
2019-05-21T07:07:08.281Z,21.200001
2019-05-21T07:08:08.288Z,20.799999
2019-05-21T07:09:08.307Z,20.9
2019-05-21T07:10:08.368Z,20.9
2019-05-21T07:11:08.377Z,21.5
2019-05-21T07:12:08.391Z,20.5
2019-05-21T07:13:08.406Z,20.700001
2019-05-21T07:14:08.541Z,21.4
2019-05-21T07:15:09.564Z,20.4
2019-05-21T07:16:08.596Z,20.299999
2019-05-21T07:17:08.634Z,20.4
2019-05-21T07:18:08.647Z,21
2019-05-21T07:19:08.724Z,21.799999
2019-05-21T07:20:08.763Z,21.5
2019-05-21T07:21:08.794Z,20.799999
2019-05-21T07:22:12.887Z,21.4
2019-05-21T07:23:09.923Z,20.9
2019-05-21T07:24:08.929Z,21.1
2019-05-21T07:25:09.070Z,20.299999
2019-05-21T07:26:09.194Z,20.200001
2019-05-21T07:27:09.027Z,20.799999
2019-05-21T07:28:09.044Z,19.4
2019-05-21T07:29:09.180Z,20.6
2019-05-21T07:30:09.179Z,21.5
2019-05-21T07:31:09.214Z,19.6
2019-05-21T07:32:09.249Z,20.299999
2019-05-21T07:33:09.369Z,20.6
2019-05-21T07:34:09.439Z,18.700001
2019-05-21T07:35:09.484Z,19.299999
2019-05-21T07:36:09.533Z,18.6
2019-05-21T07:37:09.610Z,18.9
2019-05-21T07:38:09.616Z,18.1
2019-05-21T07:39:09.646Z,19.6
2019-05-21T07:40:09.676Z,19
2019-05-21T07:41:09.793Z,17.4
2019-05-21T07:42:09.795Z,19
2019-05-21T07:43:09.809Z,18.6
2019-05-21T07:44:09.964Z,18.799999
2019-05-21T07:45:10.014Z,18.5
2019-05-21T07:46:10.087Z,18.4
2019-05-21T07:47:10.114Z,18.299999
2019-05-21T07:48:10.106Z,19.200001
2019-05-21T07:49:10.219Z,18.5
2019-05-21T07:50:10.167Z,19
2019-05-21T07:51:10.307Z,19
2019-05-21T07:52:10.311Z,19
2019-05-21T07:53:10.176Z,19
2019-05-21T07:54:10.192Z,18.200001
2019-05-21T07:55:10.276Z,18.9
2019-05-21T07:56:10.322Z,19
2019-05-21T07:57:10.432Z,18.1
2019-05-21T07:58:10.454Z,19.299999
2019-05-21T07:59:10.458Z,19.200001
2019-05-21T08:00:10.474Z,18
2019-05-21T08:01:10.470Z,19.200001
2019-05-21T08:02:10.563Z,18.200001
2019-05-21T08:03:10.587Z,18.700001
2019-05-21T08:04:10.674Z,18.1
2019-05-21T08:05:10.816Z,18.5
2019-05-21T08:06:10.891Z,18.200001
2019-05-21T08:07:11.995Z,18.4
2019-05-21T08:08:10.993Z,18.200001
2019-05-21T08:09:13.709Z,18.6
2019-05-21T08:10:12.142Z,18.9
2019-05-21T08:11:11.280Z,19.1
2019-05-21T08:12:35.211Z,18.299999
2019-05-21T08:13:12.272Z,18.700001
2019-05-21T08:14:11.298Z,19.1
2019-05-21T08:15:11.431Z,18.200001
2019-05-21T08:16:11.442Z,17.6
2019-05-21T08:17:12.480Z,17.799999
2019-05-21T08:18:11.511Z,18
2019-05-21T08:19:11.529Z,17.6
2019-05-21T08:20:11.507Z,18.799999
2019-05-21T08:21:11.687Z,18.299999
2019-05-21T08:22:11.745Z,19
2019-05-21T08:23:11.744Z,18.5
2019-05-21T08:24:11.760Z,18.1
2019-05-21T08:25:14.654Z,18.1
2019-05-21T08:26:12.830Z,17.4
2019-05-21T08:27:11.896Z,18.200001
2019-05-21T08:28:11.911Z,18.6
2019-05-21T08:29:11.932Z,18
2019-05-21T08:30:11.961Z,17.799999
2019-05-21T08:31:11.979Z,18.1
2019-05-21T08:32:11.975Z,18.5
2019-05-21T08:33:12.028Z,19
2019-05-21T08:34:12.032Z,18.700001
2019-05-21T08:35:12.041Z,18.700001
2019-05-21T08:36:12.062Z,18.200001
2019-05-21T08:37:12.152Z,18
2019-05-21T08:38:12.184Z,18
2019-05-21T08:39:26.197Z,17.5
2019-05-21T08:40:13.246Z,16.9
2019-05-21T08:41:12.246Z,17.200001
2019-05-21T08:42:12.262Z,17.299999
2019-05-21T08:43:12.289Z,17.5
2019-05-21T08:44:12.296Z,16.5
2019-05-21T08:45:12.336Z,18
2019-05-21T08:46:12.460Z,17.1
2019-05-21T08:47:12.484Z,17.200001
2019-05-21T08:48:12.550Z,17.5
2019-05-21T08:49:12.739Z,17.5
2019-05-21T08:50:12.606Z,17.1
2019-05-21T08:51:12.640Z,17.299999
2019-05-21T08:52:12.673Z,16.4
2019-05-21T08:53:12.759Z,15.8
2019-05-21T08:54:12.796Z,16.4
2019-05-21T08:55:12.823Z,16.4
2019-05-21T08:56:12.924Z,16.6
2019-05-21T08:57:12.933Z,15.9
2019-05-21T08:58:13.055Z,15.8
2019-05-21T08:59:13.055Z,15.5
2019-05-21T09:00:13.108Z,15.7
2019-05-21T09:01:13.177Z,15.3
2019-05-21T09:02:13.221Z,15.2
2019-05-21T09:03:13.271Z,14.9
2019-05-21T09:04:13.513Z,14.1
2019-05-21T09:05:13.359Z,14.8
2019-05-21T09:06:13.351Z,14.7
2019-05-21T09:07:13.422Z,14.5
2019-05-21T09:08:13.464Z,15.1
2019-05-21T09:09:13.477Z,15.1
2019-05-21T09:10:13.486Z,14.9
2019-05-21T09:11:13.499Z,14.7
2019-05-21T09:12:13.529Z,15.4
2019-05-21T09:13:13.576Z,15.2
2019-05-21T09:14:14.655Z,14.6
2019-05-21T09:15:13.642Z,15.1
2019-05-21T09:16:13.657Z,15.9
2019-05-21T09:17:13.684Z,15.3
2019-05-21T09:18:13.698Z,15.6
2019-05-21T09:19:13.804Z,14.1
2019-05-21T09:20:13.848Z,14.6
2019-05-21T09:21:13.860Z,15.7
2019-05-21T09:22:13.882Z,15.6
2019-05-21T09:23:13.890Z,15.1
2019-05-21T09:24:13.941Z,15.4
2019-05-21T09:25:13.975Z,14.6
2019-05-21T09:26:14.000Z,15.4
2019-05-21T09:27:14.064Z,15
2019-05-21T09:28:14.105Z,14.2
2019-05-21T09:29:14.276Z,14.8
2019-05-21T09:30:14.206Z,14.6
2019-05-21T09:31:14.210Z,15.4
2019-05-21T09:32:14.269Z,14.7
2019-05-21T09:33:14.287Z,15.3
2019-05-21T09:34:14.310Z,15.2
2019-05-21T09:35:14.376Z,14.9
2019-05-21T09:36:14.423Z,15.2
2019-05-21T09:37:19.510Z,15.9
2019-05-21T09:38:15.649Z,15
2019-05-21T09:39:14.707Z,14.4
2019-05-21T09:40:14.747Z,15.6
2019-05-21T09:41:14.781Z,15.7
2019-05-21T09:42:14.786Z,14.7
2019-05-21T09:43:14.870Z,14.7
2019-05-21T09:44:14.878Z,15.7
2019-05-21T09:45:14.914Z,14.5
2019-05-21T09:46:14.945Z,14.9
2019-05-21T09:47:15.010Z,15.8
2019-05-21T09:48:15.026Z,15
2019-05-21T09:49:15.043Z,15.3
2019-05-21T09:50:15.261Z,15.7
2019-05-21T09:51:19.646Z,15.1
2019-05-21T09:52:16.216Z,15.3
2019-05-21T09:53:15.222Z,15
2019-05-21T09:54:15.253Z,15.1
2019-05-21T09:55:15.304Z,15.9
2019-05-21T09:56:15.322Z,14.9
2019-05-21T09:57:15.342Z,15.5
2019-05-21T09:58:15.454Z,15.3
2019-05-21T09:59:16.517Z,15
2019-05-21T10:00:15.519Z,15.4
2019-05-21T10:01:15.630Z,15
2019-05-21T10:02:15.658Z,14.5
2019-05-21T10:03:15.641Z,15.2
2019-05-21T10:04:15.670Z,15.4
2019-05-21T10:05:15.719Z,15.4
2019-05-21T10:06:15.747Z,15
2019-05-21T10:07:15.745Z,14.3
2019-05-21T10:08:15.748Z,15
2019-05-21T10:09:15.818Z,14.9
2019-05-21T10:10:15.912Z,15.4
2019-05-21T10:11:16.019Z,14.9
2019-05-21T10:12:15.948Z,15.4
2019-05-21T10:13:15.967Z,15
2019-05-21T10:14:16.004Z,15.5
2019-05-21T10:15:16.061Z,14.7
2019-05-21T10:16:16.094Z,15.2
2019-05-21T10:17:16.129Z,15.8
2019-05-21T10:18:16.170Z,14.2
2019-05-21T10:19:16.181Z,15
2019-05-21T10:20:16.186Z,14.2
2019-05-21T10:21:16.246Z,14.5
2019-05-21T10:22:16.283Z,15
2019-05-21T10:23:16.325Z,15.2
2019-05-21T10:24:16.324Z,14.5
2019-05-21T10:25:16.315Z,15.2
2019-05-21T10:26:16.350Z,14.5
2019-05-21T10:27:16.363Z,14.8
2019-05-21T10:28:16.380Z,15.3
2019-05-21T10:29:16.431Z,15
2019-05-21T10:30:16.567Z,14.6
2019-05-21T10:31:16.695Z,14.3
2019-05-21T10:32:16.550Z,14.1
2019-05-21T10:33:16.593Z,14.6
2019-05-21T10:34:16.601Z,14.2
2019-05-21T10:35:16.702Z,14.6
2019-05-21T10:36:16.777Z,15.1
2019-05-21T10:37:16.845Z,15.3
2019-05-21T10:38:16.856Z,16.299999
2019-05-21T10:39:16.865Z,15.6
2019-05-21T10:40:16.898Z,15.9
2019-05-21T10:41:16.937Z,16.4
2019-05-21T10:42:17.002Z,16
2019-05-21T10:43:17.003Z,16
2019-05-21T10:44:17.022Z,16.200001
2019-05-21T10:45:17.010Z,15.5
2019-05-21T10:46:17.011Z,16.700001
2019-05-21T10:47:17.113Z,14.8
2019-05-21T10:48:17.279Z,16.1
2019-05-21T10:49:17.121Z,15.4
2019-05-21T10:50:17.129Z,16.799999
2019-05-21T10:51:17.129Z,16.9
2019-05-21T10:52:17.177Z,16.799999
2019-05-21T10:53:17.188Z,16.6
2019-05-21T10:54:17.228Z,16.9
2019-05-21T10:55:17.725Z,17.700001
2019-05-21T10:56:17.506Z,16.6
2019-05-21T10:57:17.567Z,17.1
2019-05-21T10:58:17.572Z,18
2019-05-21T10:59:17.574Z,17.299999
2019-05-21T11:00:17.575Z,17.799999
2019-05-21T11:01:18.613Z,17.6
2019-05-21T11:02:17.713Z,17.6
2019-05-21T11:03:17.724Z,17.5
2019-05-21T11:04:17.734Z,18.4
2019-05-21T11:05:17.755Z,17.5
2019-05-21T11:06:17.940Z,17.5
2019-05-21T11:07:17.830Z,18.200001
2019-05-21T11:08:23.808Z,18.6
2019-05-21T11:09:18.997Z,17.5
2019-05-21T11:10:18.073Z,17.9
2019-05-21T11:11:21.162Z,17.5
2019-05-21T11:12:19.133Z,16.9
2019-05-21T11:13:18.128Z,17
2019-05-21T11:14:18.206Z,17.700001
2019-05-21T11:15:18.232Z,16.9
2019-05-21T11:16:18.350Z,17.1
2019-05-21T11:17:18.469Z,16.700001
2019-05-21T11:18:18.492Z,17
2019-05-21T11:19:18.506Z,18
2019-05-21T11:20:18.518Z,18.299999
2019-05-21T11:21:18.551Z,16.9
2019-05-21T11:22:18.635Z,17
2019-05-21T11:23:18.641Z,18
2019-05-21T11:24:18.700Z,17.5
2019-05-21T11:25:18.709Z,17.5
2019-05-21T11:26:18.702Z,16.9
2019-05-21T11:27:18.738Z,17.200001
2019-05-21T11:28:18.776Z,18.4
2019-05-21T11:29:18.815Z,19.1
2019-05-21T11:30:18.818Z,17.4
2019-05-21T11:31:18.969Z,18.299999
2019-05-21T11:32:18.974Z,18.1
2019-05-21T11:33:19.025Z,18.200001
2019-05-21T11:34:19.051Z,17.9
2019-05-21T11:35:19.050Z,18.299999
2019-05-21T11:36:19.065Z,18.700001
2019-05-21T11:37:19.089Z,18.6
2019-05-21T11:38:19.193Z,18.200001
2019-05-21T11:39:19.420Z,17.700001
2019-05-21T11:40:19.490Z,18.200001
2019-05-21T11:41:19.332Z,19.200001
2019-05-21T11:42:19.339Z,18.1
2019-05-21T11:43:19.372Z,18.700001
2019-05-21T11:44:19.374Z,17.700001
2019-05-21T11:45:31.414Z,18.200001
2019-05-21T11:46:20.453Z,19.6
2019-05-21T11:47:19.450Z,18.6
2019-05-21T11:48:19.494Z,17.6
2019-05-21T11:49:19.505Z,17.9
2019-05-21T11:50:19.585Z,18
2019-05-21T11:51:19.660Z,18.4
2019-05-21T11:52:19.638Z,18.4
2019-05-21T11:53:19.669Z,19
2019-05-21T11:54:19.722Z,18.5
2019-05-21T11:55:19.737Z,18.5
2019-05-21T11:56:19.789Z,19.5
2019-05-21T11:57:19.867Z,17.9
2019-05-21T11:58:19.940Z,18.5
2019-05-21T11:59:20.010Z,19.5
2019-05-21T12:00:21.558Z,19.700001
2019-05-21T12:01:20.052Z,19.200001
2019-05-21T12:02:20.058Z,19.799999
2019-05-21T12:03:20.192Z,19.9
2019-05-21T12:04:20.192Z,19.200001
2019-05-21T12:05:20.312Z,19.700001
2019-05-21T12:06:20.235Z,20.799999
2019-05-21T12:07:20.295Z,19.9
2019-05-21T12:08:20.394Z,20.4
2019-05-21T12:09:20.409Z,19.700001
2019-05-21T12:10:20.417Z,20.200001
2019-05-21T12:11:20.450Z,19.799999
2019-05-21T12:12:20.474Z,20.1
2019-05-21T12:13:20.748Z,19.299999
2019-05-21T12:14:20.541Z,20
2019-05-21T12:15:20.756Z,20
2019-05-21T12:16:20.620Z,19.200001
2019-05-21T12:17:20.644Z,20.299999
2019-05-21T12:18:20.680Z,20.9
2019-05-21T12:19:20.782Z,20.700001
2019-05-21T12:20:35.125Z,20.5
2019-05-21T12:21:21.782Z,19.200001
2019-05-21T12:22:20.886Z,19.200001
2019-05-21T12:23:21.890Z,20.299999
2019-05-21T12:24:20.953Z,20.9
2019-05-21T12:25:20.974Z,19.6
2019-05-21T12:26:20.994Z,19.700001
2019-05-21T12:27:21.063Z,19.700001
2019-05-21T12:28:21.143Z,20.1
2019-05-21T12:29:21.305Z,20.200001
2019-05-21T12:30:21.135Z,19.9
2019-05-21T12:31:22.206Z,19.700001
2019-05-21T12:32:21.507Z,19.200001
2019-05-21T12:33:21.292Z,19.4